sensor_id;sensor_type;location;lat;lon;timestamp;P1;durP1;ratioP1;P2;durP2;ratioP2
21816;SDS011;13247;47.504;7.382;2023-06-22T00:01:16;31.17;;;10.05;;
21816;SDS011;13247;47.504;7.382;2023-06-22T00:04:00;23.77;;;8.82;;
21816;SDS011;13247;47.504;7.382;2023-06-22T00:06:45;19.38;;;9.00;;
21816;SDS011;13247;47.504;7.382;2023-06-22T00:09:30;25.90;;;9.38;;
21816;SDS011;13247;47.504;7.382;2023-06-22T00:12:16;24.80;;;9.70;;
21816;SDS011;13247;47.504;7.382;2023-06-22T00:15:00;34.83;;;9.05;;
21816;SDS011;13247;47.504;7.382;2023-06-22T00:17:45;27.42;;;9.82;;
21816;SDS011;13247;47.504;7.382;2023-06-22T00:20:30;17.23;;;9.00;;
21816;SDS011;13247;47.504;7.382;2023-06-22T00:23:16;30.50;;;8.90;;
21816;SDS011;13247;47.504;7.382;2023-06-22T00:26:01;18.60;;;8.32;;
21816;SDS011;13247;47.504;7.382;2023-06-22T00:28:45;33.40;;;8.93;;
21816;SDS011;13247;47.504;7.382;2023-06-22T00:31:30;23.40;;;8.00;;
21816;SDS011;13247;47.504;7.382;2023-06-22T00:34:15;13.95;;;7.95;;
21816;SDS011;13247;47.504;7.382;2023-06-22T00:36:59;13.38;;;8.43;;
21816;SDS011;13247;47.504;7.382;2023-06-22T00:39:44;19.48;;;8.68;;
21816;SDS011;13247;47.504;7.382;2023-06-22T00:42:29;13.05;;;7.20;;
21816;SDS011;13247;47.504;7.382;2023-06-22T00:45:14;13.68;;;7.78;;
21816;SDS011;13247;47.504;7.382;2023-06-22T00:47:59;15.05;;;7.88;;
21816;SDS011;13247;47.504;7.382;2023-06-22T00:50:44;15.25;;;7.75;;
21816;SDS011;13247;47.504;7.382;2023-06-22T00:53:29;13.93;;;8.27;;
21816;SDS011;13247;47.504;7.382;2023-06-22T00:56:18;14.02;;;7.30;;
21816;SDS011;13247;47.504;7.382;2023-06-22T00:59:08;17.80;;;7.57;;
21816;SDS011;13247;47.504;7.382;2023-06-22T01:01:55;17.30;;;7.82;;
21816;SDS011;13247;47.504;7.382;2023-06-22T01:04:41;10.80;;;5.95;;
21816;SDS011;13247;47.504;7.382;2023-06-22T01:07:30;11.30;;;6.60;;
21816;SDS011;13247;47.504;7.382;2023-06-22T01:10:32;11.80;;;6.72;;
21816;SDS011;13247;47.504;7.382;2023-06-22T01:16:30;13.13;;;6.05;;
21816;SDS011;13247;47.504;7.382;2023-06-22T01:22:45;12.13;;;5.75;;
21816;SDS011;13247;47.504;7.382;2023-06-22T01:25:36;12.32;;;6.13;;
21816;SDS011;13247;47.504;7.382;2023-06-22T01:31:31;11.60;;;6.40;;
21816;SDS011;13247;47.504;7.382;2023-06-22T01:34:19;14.30;;;6.13;;
21816;SDS011;13247;47.504;7.382;2023-06-22T01:37:05;11.27;;;6.43;;
21816;SDS011;13247;47.504;7.382;2023-06-22T01:39:50;16.65;;;6.95;;
21816;SDS011;13247;47.504;7.382;2023-06-22T01:42:36;15.98;;;7.05;;
21816;SDS011;13247;47.504;7.382;2023-06-22T01:45:22;12.13;;;7.45;;
21816;SDS011;13247;47.504;7.382;2023-06-22T01:48:07;20.92;;;8.30;;
21816;SDS011;13247;47.504;7.382;2023-06-22T01:50:53;15.95;;;7.97;;
21816;SDS011;13247;47.504;7.382;2023-06-22T01:53:38;22.02;;;7.93;;
21816;SDS011;13247;47.504;7.382;2023-06-22T01:56:23;16.92;;;8.10;;
21816;SDS011;13247;47.504;7.382;2023-06-22T01:59:11;20.70;;;7.82;;
21816;SDS011;13247;47.504;7.382;2023-06-22T02:02:09;17.02;;;8.35;;
21816;SDS011;13247;47.504;7.382;2023-06-22T02:04:59;14.20;;;7.47;;
21816;SDS011;13247;47.504;7.382;2023-06-22T02:08:09;11.70;;;7.53;;
21816;SDS011;13247;47.504;7.382;2023-06-22T02:11:02;16.63;;;7.82;;
21816;SDS011;13247;47.504;7.382;2023-06-22T02:13:50;18.17;;;7.53;;
21816;SDS011;13247;47.504;7.382;2023-06-22T02:16:35;13.10;;;7.43;;
21816;SDS011;13247;47.504;7.382;2023-06-22T02:19:24;18.48;;;8.43;;
21816;SDS011;13247;47.504;7.382;2023-06-22T02:22:10;16.80;;;7.60;;
21816;SDS011;13247;47.504;7.382;2023-06-22T02:24:58;15.88;;;7.80;;
21816;SDS011;13247;47.504;7.382;2023-06-22T02:27:43;12.55;;;7.28;;
21816;SDS011;13247;47.504;7.382;2023-06-22T02:30:28;14.30;;;8.43;;
21816;SDS011;13247;47.504;7.382;2023-06-22T02:33:13;16.40;;;8.20;;
21816;SDS011;13247;47.504;7.382;2023-06-22T02:35:57;11.55;;;7.90;;
21816;SDS011;13247;47.504;7.382;2023-06-22T02:38:42;13.23;;;7.18;;
21816;SDS011;13247;47.504;7.382;2023-06-22T02:41:31;15.55;;;7.50;;
21816;SDS011;13247;47.504;7.382;2023-06-22T02:44:16;11.77;;;7.50;;
21816;SDS011;13247;47.504;7.382;2023-06-22T02:47:01;12.65;;;8.38;;
21816;SDS011;13247;47.504;7.382;2023-06-22T02:49:47;12.80;;;7.38;;
21816;SDS011;13247;47.504;7.382;2023-06-22T02:52:32;19.65;;;8.48;;
21816;SDS011;13247;47.504;7.382;2023-06-22T02:55:17;14.27;;;7.60;;
21816;SDS011;13247;47.504;7.382;2023-06-22T02:58:02;10.95;;;6.72;;
21816;SDS011;13247;47.504;7.382;2023-06-22T03:00:48;12.85;;;7.75;;
21816;SDS011;13247;47.504;7.382;2023-06-22T03:03:36;14.70;;;8.20;;
21816;SDS011;13247;47.504;7.382;2023-06-22T03:06:21;13.57;;;8.32;;
21816;SDS011;13247;47.504;7.382;2023-06-22T03:09:07;14.02;;;8.63;;
21816;SDS011;13247;47.504;7.382;2023-06-22T03:11:51;12.48;;;7.78;;
21816;SDS011;13247;47.504;7.382;2023-06-22T03:14:36;12.90;;;7.50;;
21816;SDS011;13247;47.504;7.382;2023-06-22T03:17:21;19.40;;;7.45;;
21816;SDS011;13247;47.504;7.382;2023-06-22T03:20:06;16.63;;;8.52;;
21816;SDS011;13247;47.504;7.382;2023-06-22T03:22:52;17.05;;;8.15;;
21816;SDS011;13247;47.504;7.382;2023-06-22T03:25:37;16.98;;;8.18;;
21816;SDS011;13247;47.504;7.382;2023-06-22T03:28:21;24.05;;;9.63;;
21816;SDS011;13247;47.504;7.382;2023-06-22T03:31:06;21.48;;;9.90;;
21816;SDS011;13247;47.504;7.382;2023-06-22T03:33:52;20.90;;;10.30;;
21816;SDS011;13247;47.504;7.382;2023-06-22T03:36:37;21.48;;;8.95;;
21816;SDS011;13247;47.504;7.382;2023-06-22T03:39:22;18.45;;;9.23;;
21816;SDS011;13247;47.504;7.382;2023-06-22T03:42:06;18.88;;;8.82;;
21816;SDS011;13247;47.504;7.382;2023-06-22T03:44:52;15.52;;;8.73;;
21816;SDS011;13247;47.504;7.382;2023-06-22T03:47:36;15.55;;;8.00;;
21816;SDS011;13247;47.504;7.382;2023-06-22T03:50:21;13.10;;;7.47;;
21816;SDS011;13247;47.504;7.382;2023-06-22T03:53:05;19.23;;;9.23;;
21816;SDS011;13247;47.504;7.382;2023-06-22T03:55:51;13.05;;;9.18;;
21816;SDS011;13247;47.504;7.382;2023-06-22T03:58:35;17.42;;;9.27;;
21816;SDS011;13247;47.504;7.382;2023-06-22T04:01:26;23.33;;;9.88;;
21816;SDS011;13247;47.504;7.382;2023-06-22T04:04:11;22.50;;;9.32;;
21816;SDS011;13247;47.504;7.382;2023-06-22T04:06:56;18.85;;;9.13;;
21816;SDS011;13247;47.504;7.382;2023-06-22T04:09:40;20.92;;;9.85;;
21816;SDS011;13247;47.504;7.382;2023-06-22T04:12:25;21.80;;;9.48;;
21816;SDS011;13247;47.504;7.382;2023-06-22T04:15:10;21.70;;;10.45;;
21816;SDS011;13247;47.504;7.382;2023-06-22T04:17:55;16.88;;;9.07;;
21816;SDS011;13247;47.504;7.382;2023-06-22T04:20:40;18.00;;;9.98;;
21816;SDS011;13247;47.504;7.382;2023-06-22T04:23:25;18.90;;;9.85;;
21816;SDS011;13247;47.504;7.382;2023-06-22T04:26:10;18.58;;;10.23;;
21816;SDS011;13247;47.504;7.382;2023-06-22T04:28:54;20.35;;;10.13;;
21816;SDS011;13247;47.504;7.382;2023-06-22T04:31:39;17.65;;;10.45;;
21816;SDS011;13247;47.504;7.382;2023-06-22T04:34:24;21.83;;;9.90;;
21816;SDS011;13247;47.504;7.382;2023-06-22T04:37:12;22.13;;;10.30;;
21816;SDS011;13247;47.504;7.382;2023-06-22T04:39:59;15.10;;;9.40;;
21816;SDS011;13247;47.504;7.382;2023-06-22T04:42:44;14.10;;;9.15;;
21816;SDS011;13247;47.504;7.382;2023-06-22T04:45:36;13.75;;;9.75;;
21816;SDS011;13247;47.504;7.382;2023-06-22T04:48:23;16.33;;;10.02;;
21816;SDS011;13247;47.504;7.382;2023-06-22T04:51:08;23.08;;;10.07;;
21816;SDS011;13247;47.504;7.382;2023-06-22T04:53:54;23.77;;;10.98;;
21816;SDS011;13247;47.504;7.382;2023-06-22T04:56:43;19.00;;;11.52;;
21816;SDS011;13247;47.504;7.382;2023-06-22T04:59:30;22.25;;;10.73;;
21816;SDS011;13247;47.504;7.382;2023-06-22T05:02:15;27.05;;;13.13;;
21816;SDS011;13247;47.504;7.382;2023-06-22T05:05:00;24.20;;;12.85;;
21816;SDS011;13247;47.504;7.382;2023-06-22T05:07:50;31.27;;;11.38;;
21816;SDS011;13247;47.504;7.382;2023-06-22T05:10:36;17.90;;;12.45;;
21816;SDS011;13247;47.504;7.382;2023-06-22T05:13:20;25.73;;;12.80;;
21816;SDS011;13247;47.504;7.382;2023-06-22T05:16:05;26.83;;;14.55;;
21816;SDS011;13247;47.504;7.382;2023-06-22T05:18:50;22.20;;;10.75;;
21816;SDS011;13247;47.504;7.382;2023-06-22T05:21:37;23.67;;;12.60;;
21816;SDS011;13247;47.504;7.382;2023-06-22T05:24:22;27.27;;;13.45;;
21816;SDS011;13247;47.504;7.382;2023-06-22T05:27:07;16.75;;;10.18;;
21816;SDS011;13247;47.504;7.382;2023-06-22T05:29:52;17.30;;;10.27;;
21816;SDS011;13247;47.504;7.382;2023-06-22T05:32:36;21.80;;;11.32;;
21816;SDS011;13247;47.504;7.382;2023-06-22T05:35:21;22.63;;;10.93;;
21816;SDS011;13247;47.504;7.382;2023-06-22T05:38:06;21.52;;;12.30;;
21816;SDS011;13247;47.504;7.382;2023-06-22T05:40:51;18.10;;;10.32;;
21816;SDS011;13247;47.504;7.382;2023-06-22T05:43:35;24.90;;;12.60;;
21816;SDS011;13247;47.504;7.382;2023-06-22T05:46:20;18.15;;;11.38;;
21816;SDS011;13247;47.504;7.382;2023-06-22T05:49:04;18.85;;;12.05;;
21816;SDS011;13247;47.504;7.382;2023-06-22T05:51:49;20.48;;;12.15;;
21816;SDS011;13247;47.504;7.382;2023-06-22T05:54:34;22.50;;;13.25;;
21816;SDS011;13247;47.504;7.382;2023-06-22T05:57:19;20.83;;;12.73;;
21816;SDS011;13247;47.504;7.382;2023-06-22T06:00:05;23.85;;;12.20;;
21816;SDS011;13247;47.504;7.382;2023-06-22T06:02:54;23.92;;;13.40;;
21816;SDS011;13247;47.504;7.382;2023-06-22T06:05:38;20.90;;;13.02;;
21816;SDS011;13247;47.504;7.382;2023-06-22T06:08:23;31.80;;;16.02;;
21816;SDS011;13247;47.504;7.382;2023-06-22T06:11:08;24.50;;;15.48;;
21816;SDS011;13247;47.504;7.382;2023-06-22T06:13:53;26.70;;;16.13;;
21816;SDS011;13247;47.504;7.382;2023-06-22T06:16:37;28.33;;;16.35;;
21816;SDS011;13247;47.504;7.382;2023-06-22T06:19:22;26.73;;;16.50;;
21816;SDS011;13247;47.504;7.382;2023-06-22T06:22:06;23.92;;;13.98;;
21816;SDS011;13247;47.504;7.382;2023-06-22T06:24:51;31.90;;;17.65;;
21816;SDS011;13247;47.504;7.382;2023-06-22T06:27:36;35.53;;;19.02;;
21816;SDS011;13247;47.504;7.382;2023-06-22T06:30:20;42.05;;;20.60;;
21816;SDS011;13247;47.504;7.382;2023-06-22T06:33:06;34.97;;;19.13;;
21816;SDS011;13247;47.504;7.382;2023-06-22T06:35:52;31.95;;;17.98;;
21816;SDS011;13247;47.504;7.382;2023-06-22T06:38:36;27.13;;;16.42;;
21816;SDS011;13247;47.504;7.382;2023-06-22T06:41:21;28.00;;;15.25;;
21816;SDS011;13247;47.504;7.382;2023-06-22T06:44:06;35.97;;;19.20;;
21816;SDS011;13247;47.504;7.382;2023-06-22T06:46:51;26.55;;;16.85;;
21816;SDS011;13247;47.504;7.382;2023-06-22T06:49:37;27.75;;;14.95;;
21816;SDS011;13247;47.504;7.382;2023-06-22T06:52:22;30.00;;;17.73;;
21816;SDS011;13247;47.504;7.382;2023-06-22T06:55:07;24.05;;;15.13;;
21816;SDS011;13247;47.504;7.382;2023-06-22T06:57:55;31.38;;;18.02;;
21816;SDS011;13247;47.504;7.382;2023-06-22T07:00:40;34.70;;;19.55;;
21816;SDS011;13247;47.504;7.382;2023-06-22T07:03:24;24.80;;;15.35;;
21816;SDS011;13247;47.504;7.382;2023-06-22T07:06:09;24.48;;;14.32;;
21816;SDS011;13247;47.504;7.382;2023-06-22T07:08:53;34.13;;;19.88;;
21816;SDS011;13247;47.504;7.382;2023-06-22T07:11:39;32.03;;;18.63;;
21816;SDS011;13247;47.504;7.382;2023-06-22T07:14:23;30.65;;;18.15;;
21816;SDS011;13247;47.504;7.382;2023-06-22T07:17:08;36.83;;;21.15;;
21816;SDS011;13247;47.504;7.382;2023-06-22T07:19:52;29.25;;;18.10;;
21816;SDS011;13247;47.504;7.382;2023-06-22T07:22:37;35.92;;;19.30;;
21816;SDS011;13247;47.504;7.382;2023-06-22T07:25:23;35.15;;;20.13;;
21816;SDS011;13247;47.504;7.382;2023-06-22T07:28:08;37.97;;;21.17;;
21816;SDS011;13247;47.504;7.382;2023-06-22T07:30:52;22.48;;;13.13;;
21816;SDS011;13247;47.504;7.382;2023-06-22T07:33:37;28.02;;;16.88;;
21816;SDS011;13247;47.504;7.382;2023-06-22T07:36:21;33.50;;;18.60;;
21816;SDS011;13247;47.504;7.382;2023-06-22T07:39:06;33.03;;;19.95;;
21816;SDS011;13247;47.504;7.382;2023-06-22T07:41:51;25.35;;;14.57;;
21816;SDS011;13247;47.504;7.382;2023-06-22T07:44:36;23.77;;;15.35;;
21816;SDS011;13247;47.504;7.382;2023-06-22T07:47:20;19.80;;;11.13;;
21816;SDS011;13247;47.504;7.382;2023-06-22T07:50:09;18.63;;;12.00;;
21816;SDS011;13247;47.504;7.382;2023-06-22T07:52:53;19.63;;;12.25;;
21816;SDS011;13247;47.504;7.382;2023-06-22T07:55:38;19.10;;;12.05;;
21816;SDS011;13247;47.504;7.382;2023-06-22T07:58:22;26.85;;;16.05;;
21816;SDS011;13247;47.504;7.382;2023-06-22T08:01:07;20.10;;;13.60;;
21816;SDS011;13247;47.504;7.382;2023-06-22T08:03:52;18.60;;;12.38;;
21816;SDS011;13247;47.504;7.382;2023-06-22T08:06:36;16.00;;;11.38;;
21816;SDS011;13247;47.504;7.382;2023-06-22T08:09:21;21.60;;;12.77;;
21816;SDS011;13247;47.504;7.382;2023-06-22T08:12:06;19.35;;;12.00;;
21816;SDS011;13247;47.504;7.382;2023-06-22T08:14:51;23.92;;;12.30;;
21816;SDS011;13247;47.504;7.382;2023-06-22T08:17:36;20.08;;;11.60;;
21816;SDS011;13247;47.504;7.382;2023-06-22T08:20:21;15.95;;;9.50;;
21816;SDS011;13247;47.504;7.382;2023-06-22T08:23:06;15.73;;;10.70;;
21816;SDS011;13247;47.504;7.382;2023-06-22T08:25:50;18.50;;;9.73;;
21816;SDS011;13247;47.504;7.382;2023-06-22T08:28:35;17.30;;;11.30;;
21816;SDS011;13247;47.504;7.382;2023-06-22T08:31:19;18.17;;;11.18;;
21816;SDS011;13247;47.504;7.382;2023-06-22T08:34:04;14.23;;;9.95;;
21816;SDS011;13247;47.504;7.382;2023-06-22T08:36:49;18.48;;;8.70;;
21816;SDS011;13247;47.504;7.382;2023-06-22T08:39:35;17.85;;;9.43;;
21816;SDS011;13247;47.504;7.382;2023-06-22T08:42:19;15.50;;;9.50;;
21816;SDS011;13247;47.504;7.382;2023-06-22T08:45:04;20.20;;;10.35;;
21816;SDS011;13247;47.504;7.382;2023-06-22T08:47:49;15.95;;;9.27;;
21816;SDS011;13247;47.504;7.382;2023-06-22T08:50:34;16.40;;;9.30;;
21816;SDS011;13247;47.504;7.382;2023-06-22T08:53:18;18.63;;;9.45;;
21816;SDS011;13247;47.504;7.382;2023-06-22T08:56:03;17.27;;;9.95;;
21816;SDS011;13247;47.504;7.382;2023-06-22T08:58:48;20.08;;;11.00;;
21816;SDS011;13247;47.504;7.382;2023-06-22T09:01:32;19.58;;;9.52;;
21816;SDS011;13247;47.504;7.382;2023-06-22T09:04:17;15.60;;;10.35;;
21816;SDS011;13247;47.504;7.382;2023-06-22T09:07:02;18.55;;;11.23;;
21816;SDS011;13247;47.504;7.382;2023-06-22T09:09:46;18.52;;;11.07;;
21816;SDS011;13247;47.504;7.382;2023-06-22T09:12:32;18.38;;;11.10;;
21816;SDS011;13247;47.504;7.382;2023-06-22T09:15:17;19.10;;;10.43;;
21816;SDS011;13247;47.504;7.382;2023-06-22T09:18:01;17.27;;;9.23;;
21816;SDS011;13247;47.504;7.382;2023-06-22T09:20:46;22.65;;;10.95;;
21816;SDS011;13247;47.504;7.382;2023-06-22T09:23:31;20.88;;;10.95;;
21816;SDS011;13247;47.504;7.382;2023-06-22T09:26:15;17.73;;;10.18;;
21816;SDS011;13247;47.504;7.382;2023-06-22T09:29:07;18.20;;;10.30;;
21816;SDS011;13247;47.504;7.382;2023-06-22T09:31:51;20.25;;;10.60;;
21816;SDS011;13247;47.504;7.382;2023-06-22T09:34:37;13.75;;;9.32;;
21816;SDS011;13247;47.504;7.382;2023-06-22T09:37:22;19.90;;;10.00;;
21816;SDS011;13247;47.504;7.382;2023-06-22T09:40:07;15.25;;;9.77;;
21816;SDS011;13247;47.504;7.382;2023-06-22T09:42:53;21.00;;;9.52;;
21816;SDS011;13247;47.504;7.382;2023-06-22T09:45:38;18.40;;;9.82;;
21816;SDS011;13247;47.504;7.382;2023-06-22T09:48:23;18.25;;;9.77;;
21816;SDS011;13247;47.504;7.382;2023-06-22T09:51:07;20.15;;;10.45;;
21816;SDS011;13247;47.504;7.382;2023-06-22T09:53:53;21.00;;;10.48;;
21816;SDS011;13247;47.504;7.382;2023-06-22T09:56:38;16.52;;;9.10;;
21816;SDS011;13247;47.504;7.382;2023-06-22T09:59:22;18.73;;;10.65;;
21816;SDS011;13247;47.504;7.382;2023-06-22T10:02:07;17.27;;;10.63;;
21816;SDS011;13247;47.504;7.382;2023-06-22T10:04:52;17.42;;;10.65;;
21816;SDS011;13247;47.504;7.382;2023-06-22T10:07:37;18.13;;;10.43;;
21816;SDS011;13247;47.504;7.382;2023-06-22T10:10:25;18.17;;;11.27;;
21816;SDS011;13247;47.504;7.382;2023-06-22T10:13:10;18.77;;;10.57;;
21816;SDS011;13247;47.504;7.382;2023-06-22T10:15:55;19.98;;;10.02;;
21816;SDS011;13247;47.504;7.382;2023-06-22T10:18:39;16.45;;;10.57;;
21816;SDS011;13247;47.504;7.382;2023-06-22T10:21:24;22.92;;;11.68;;
21816;SDS011;13247;47.504;7.382;2023-06-22T10:24:11;17.90;;;10.20;;
21816;SDS011;13247;47.504;7.382;2023-06-22T10:26:55;23.08;;;11.55;;
21816;SDS011;13247;47.504;7.382;2023-06-22T10:29:41;20.08;;;10.60;;
21816;SDS011;13247;47.504;7.382;2023-06-22T10:32:26;19.00;;;11.02;;
21816;SDS011;13247;47.504;7.382;2023-06-22T10:35:14;21.10;;;11.85;;
21816;SDS011;13247;47.504;7.382;2023-06-22T10:37:59;18.83;;;10.13;;
21816;SDS011;13247;47.504;7.382;2023-06-22T10:40:44;18.88;;;10.70;;
21816;SDS011;13247;47.504;7.382;2023-06-22T10:43:29;19.15;;;10.70;;
21816;SDS011;13247;47.504;7.382;2023-06-22T10:46:14;23.75;;;12.73;;
21816;SDS011;13247;47.504;7.382;2023-06-22T10:48:58;25.05;;;10.55;;
21816;SDS011;13247;47.504;7.382;2023-06-22T10:51:43;17.67;;;8.82;;
21816;SDS011;13247;47.504;7.382;2023-06-22T10:54:28;21.65;;;11.90;;
21816;SDS011;13247;47.504;7.382;2023-06-22T10:57:12;21.73;;;11.52;;
21816;SDS011;13247;47.504;7.382;2023-06-22T10:59:57;14.95;;;10.55;;
21816;SDS011;13247;47.504;7.382;2023-06-22T11:02:41;17.65;;;11.18;;
21816;SDS011;13247;47.504;7.382;2023-06-22T11:05:26;20.88;;;11.55;;
21816;SDS011;13247;47.504;7.382;2023-06-22T11:08:11;18.23;;;9.52;;
21816;SDS011;13247;47.504;7.382;2023-06-22T11:10:55;18.17;;;9.68;;
21816;SDS011;13247;47.504;7.382;2023-06-22T11:13:40;18.77;;;11.45;;
21816;SDS011;13247;47.504;7.382;2023-06-22T11:16:25;24.63;;;11.93;;
21816;SDS011;13247;47.504;7.382;2023-06-22T11:19:09;20.75;;;10.88;;
21816;SDS011;13247;47.504;7.382;2023-06-22T11:21:54;22.48;;;11.32;;
21816;SDS011;13247;47.504;7.382;2023-06-22T11:24:38;20.05;;;11.05;;
21816;SDS011;13247;47.504;7.382;2023-06-22T11:27:23;17.60;;;11.23;;
21816;SDS011;13247;47.504;7.382;2023-06-22T11:30:08;19.58;;;10.77;;
21816;SDS011;13247;47.504;7.382;2023-06-22T11:32:53;19.67;;;12.00;;
21816;SDS011;13247;47.504;7.382;2023-06-22T11:35:38;17.83;;;10.82;;
21816;SDS011;13247;47.504;7.382;2023-06-22T11:38:23;16.55;;;10.25;;
21816;SDS011;13247;47.504;7.382;2023-06-22T11:41:08;19.25;;;11.35;;
21816;SDS011;13247;47.504;7.382;2023-06-22T11:43:54;19.85;;;11.57;;
21816;SDS011;13247;47.504;7.382;2023-06-22T11:46:38;18.63;;;10.18;;
21816;SDS011;13247;47.504;7.382;2023-06-22T11:49:23;17.58;;;10.15;;
21816;SDS011;13247;47.504;7.382;2023-06-22T11:52:07;18.77;;;10.30;;
21816;SDS011;13247;47.504;7.382;2023-06-22T11:54:52;15.90;;;10.80;;
21816;SDS011;13247;47.504;7.382;2023-06-22T11:57:37;17.27;;;9.75;;
21816;SDS011;13247;47.504;7.382;2023-06-22T12:00:22;22.30;;;9.50;;
21816;SDS011;13247;47.504;7.382;2023-06-22T12:03:08;18.65;;;8.90;;
21816;SDS011;13247;47.504;7.382;2023-06-22T12:05:53;16.15;;;8.55;;
21816;SDS011;13247;47.504;7.382;2023-06-22T12:08:38;15.95;;;9.60;;
21816;SDS011;13247;47.504;7.382;2023-06-22T12:11:22;18.27;;;9.18;;
21816;SDS011;13247;47.504;7.382;2023-06-22T12:14:07;18.20;;;8.75;;
21816;SDS011;13247;47.504;7.382;2023-06-22T12:16:52;15.43;;;8.48;;
21816;SDS011;13247;47.504;7.382;2023-06-22T12:19:36;18.17;;;8.93;;
21816;SDS011;13247;47.504;7.382;2023-06-22T12:22:21;20.17;;;8.60;;
21816;SDS011;13247;47.504;7.382;2023-06-22T12:25:06;21.23;;;8.57;;
21816;SDS011;13247;47.504;7.382;2023-06-22T12:27:51;14.55;;;9.18;;
21816;SDS011;13247;47.504;7.382;2023-06-22T12:30:37;17.48;;;8.57;;
21816;SDS011;13247;47.504;7.382;2023-06-22T12:33:22;18.58;;;8.10;;
21816;SDS011;13247;47.504;7.382;2023-06-22T12:36:06;14.57;;;8.38;;
21816;SDS011;13247;47.504;7.382;2023-06-22T12:38:51;14.98;;;7.97;;
21816;SDS011;13247;47.504;7.382;2023-06-22T12:41:35;17.48;;;8.00;;
21816;SDS011;13247;47.504;7.382;2023-06-22T12:44:20;16.25;;;7.10;;
21816;SDS011;13247;47.504;7.382;2023-06-22T12:47:05;16.42;;;8.30;;
21816;SDS011;13247;47.504;7.382;2023-06-22T12:49:49;17.98;;;8.65;;
21816;SDS011;13247;47.504;7.382;2023-06-22T12:52:36;14.85;;;8.35;;
21816;SDS011;13247;47.504;7.382;2023-06-22T12:55:23;12.93;;;6.72;;
21816;SDS011;13247;47.504;7.382;2023-06-22T12:58:07;11.52;;;5.70;;
21816;SDS011;13247;47.504;7.382;2023-06-22T13:00:52;13.35;;;6.15;;
21816;SDS011;13247;47.504;7.382;2023-06-22T13:03:37;14.63;;;5.88;;
21816;SDS011;13247;47.504;7.382;2023-06-22T13:06:22;10.23;;;4.63;;
21816;SDS011;13247;47.504;7.382;2023-06-22T13:09:06;12.23;;;4.97;;
21816;SDS011;13247;47.504;7.382;2023-06-22T13:11:53;10.18;;;5.18;;
21816;SDS011;13247;47.504;7.382;2023-06-22T13:14:37;13.27;;;5.65;;
21816;SDS011;13247;47.504;7.382;2023-06-22T13:17:23;16.52;;;5.80;;
21816;SDS011;13247;47.504;7.382;2023-06-22T13:20:07;17.08;;;6.30;;
21816;SDS011;13247;47.504;7.382;2023-06-22T13:22:53;15.85;;;6.82;;
21816;SDS011;13247;47.504;7.382;2023-06-22T13:25:38;14.48;;;6.20;;
21816;SDS011;13247;47.504;7.382;2023-06-22T13:28:23;9.45;;;6.25;;
21816;SDS011;13247;47.504;7.382;2023-06-22T13:31:08;12.70;;;6.18;;
21816;SDS011;13247;47.504;7.382;2023-06-22T13:33:53;15.52;;;6.82;;
21816;SDS011;13247;47.504;7.382;2023-06-22T13:36:37;13.63;;;6.07;;
21816;SDS011;13247;47.504;7.382;2023-06-22T13:39:22;16.25;;;6.93;;
21816;SDS011;13247;47.504;7.382;2023-06-22T13:42:06;16.30;;;6.97;;
21816;SDS011;13247;47.504;7.382;2023-06-22T13:44:51;18.63;;;7.18;;
21816;SDS011;13247;47.504;7.382;2023-06-22T13:47:36;13.98;;;6.28;;
21816;SDS011;13247;47.504;7.382;2023-06-22T13:50:21;17.20;;;6.25;;
21816;SDS011;13247;47.504;7.382;2023-06-22T13:53:05;10.13;;;5.72;;
21816;SDS011;13247;47.504;7.382;2023-06-22T13:55:50;14.38;;;6.22;;
21816;SDS011;13247;47.504;7.382;2023-06-22T13:58:34;8.13;;;5.70;;
21816;SDS011;13247;47.504;7.382;2023-06-22T14:01:19;11.85;;;5.85;;
21816;SDS011;13247;47.504;7.382;2023-06-22T14:04:03;19.83;;;5.95;;
21816;SDS011;13247;47.504;7.382;2023-06-22T14:06:48;12.63;;;5.80;;
21816;SDS011;13247;47.504;7.382;2023-06-22T14:09:33;14.55;;;5.05;;
21816;SDS011;13247;47.504;7.382;2023-06-22T14:12:17;14.40;;;5.45;;
21816;SDS011;13247;47.504;7.382;2023-06-22T14:15:02;10.15;;;5.05;;
21816;SDS011;13247;47.504;7.382;2023-06-22T14:17:47;13.90;;;5.65;;
21816;SDS011;13247;47.504;7.382;2023-06-22T14:20:32;13.38;;;4.90;;
21816;SDS011;13247;47.504;7.382;2023-06-22T14:23:16;14.60;;;5.80;;
21816;SDS011;13247;47.504;7.382;2023-06-22T14:26:01;14.43;;;5.30;;
21816;SDS011;13247;47.504;7.382;2023-06-22T14:28:45;8.57;;;4.63;;
21816;SDS011;13247;47.504;7.382;2023-06-22T14:31:32;16.58;;;5.50;;
21816;SDS011;13247;47.504;7.382;2023-06-22T14:34:17;12.50;;;5.28;;
21816;SDS011;13247;47.504;7.382;2023-06-22T14:37:02;10.57;;;4.20;;
21816;SDS011;13247;47.504;7.382;2023-06-22T14:39:47;9.65;;;3.90;;
21816;SDS011;13247;47.504;7.382;2023-06-22T14:42:31;20.23;;;4.80;;
21816;SDS011;13247;47.504;7.382;2023-06-22T14:45:16;11.35;;;4.82;;
21816;SDS011;13247;47.504;7.382;2023-06-22T14:48:01;11.35;;;4.68;;
21816;SDS011;13247;47.504;7.382;2023-06-22T14:50:45;17.30;;;5.93;;
21816;SDS011;13247;47.504;7.382;2023-06-22T14:53:30;8.55;;;4.47;;
21816;SDS011;13247;47.504;7.382;2023-06-22T14:56:14;13.23;;;4.40;;
21816;SDS011;13247;47.504;7.382;2023-06-22T14:58:59;12.00;;;4.40;;
21816;SDS011;13247;47.504;7.382;2023-06-22T15:01:44;13.43;;;4.80;;
21816;SDS011;13247;47.504;7.382;2023-06-22T15:04:28;11.18;;;5.13;;
21816;SDS011;13247;47.504;7.382;2023-06-22T15:07:18;10.23;;;4.35;;
21816;SDS011;13247;47.504;7.382;2023-06-22T15:10:03;14.63;;;5.85;;
21816;SDS011;13247;47.504;7.382;2023-06-22T15:12:49;15.60;;;5.53;;
21816;SDS011;13247;47.504;7.382;2023-06-22T15:15:33;10.63;;;4.85;;
21816;SDS011;13247;47.504;7.382;2023-06-22T15:18:18;11.07;;;4.45;;
21816;SDS011;13247;47.504;7.382;2023-06-22T15:21:02;16.65;;;5.05;;
21816;SDS011;13247;47.504;7.382;2023-06-22T15:23:48;15.73;;;4.93;;
21816;SDS011;13247;47.504;7.382;2023-06-22T15:26:32;14.65;;;4.93;;
21816;SDS011;13247;47.504;7.382;2023-06-22T15:29:17;15.88;;;4.97;;
21816;SDS011;13247;47.504;7.382;2023-06-22T15:32:02;12.60;;;4.80;;
21816;SDS011;13247;47.504;7.382;2023-06-22T15:34:47;13.60;;;5.00;;
21816;SDS011;13247;47.504;7.382;2023-06-22T15:37:33;12.25;;;4.63;;
21816;SDS011;13247;47.504;7.382;2023-06-22T15:40:18;15.52;;;4.68;;
21816;SDS011;13247;47.504;7.382;2023-06-22T15:43:02;14.82;;;5.18;;
21816;SDS011;13247;47.504;7.382;2023-06-22T15:45:47;15.68;;;5.03;;
21816;SDS011;13247;47.504;7.382;2023-06-22T15:48:33;14.32;;;5.80;;
21816;SDS011;13247;47.504;7.382;2023-06-22T15:51:17;15.93;;;5.45;;
21816;SDS011;13247;47.504;7.382;2023-06-22T15:54:02;14.25;;;6.05;;
21816;SDS011;13247;47.504;7.382;2023-06-22T15:56:46;15.57;;;5.78;;
21816;SDS011;13247;47.504;7.382;2023-06-22T15:59:31;17.27;;;6.18;;
21816;SDS011;13247;47.504;7.382;2023-06-22T16:02:16;16.83;;;5.72;;
21816;SDS011;13247;47.504;7.382;2023-06-22T16:05:01;12.07;;;5.63;;
21816;SDS011;13247;47.504;7.382;2023-06-22T16:07:46;16.83;;;5.70;;
21816;SDS011;13247;47.504;7.382;2023-06-22T16:10:31;8.05;;;5.65;;
21816;SDS011;13247;47.504;7.382;2023-06-22T16:13:16;11.10;;;5.50;;
21816;SDS011;13247;47.504;7.382;2023-06-22T16:16:01;17.45;;;6.43;;
21816;SDS011;13247;47.504;7.382;2023-06-22T16:18:46;13.50;;;5.00;;
21816;SDS011;13247;47.504;7.382;2023-06-22T16:21:31;14.95;;;6.15;;
21816;SDS011;13247;47.504;7.382;2023-06-22T16:24:16;12.82;;;5.32;;